sensor_id;sensor_type;location;lat;lon;timestamp;P1;durP1;ratioP1;P2;durP2;ratioP2
45388;SDS011;31127;52.078;4.370;2024-02-21T00:02:33;20.15;;;4.28;;
45388;SDS011;31127;52.078;4.370;2024-02-21T00:07:29;19.08;;;4.35;;
45388;SDS011;31127;52.078;4.370;2024-02-21T00:12:24;26.40;;;4.20;;
45388;SDS011;31127;52.078;4.370;2024-02-21T00:17:20;32.42;;;4.78;;
45388;SDS011;31127;52.078;4.370;2024-02-21T00:22:15;25.25;;;4.57;;
45388;SDS011;31127;52.078;4.370;2024-02-21T00:27:11;21.38;;;5.18;;
45388;SDS011;31127;52.078;4.370;2024-02-21T00:32:06;24.67;;;4.15;;
45388;SDS011;31127;52.078;4.370;2024-02-21T00:37:22;33.42;;;5.20;;
45388;SDS011;31127;52.078;4.370;2024-02-21T00:42:18;21.90;;;4.28;;
45388;SDS011;31127;52.078;4.370;2024-02-21T00:47:13;24.77;;;5.18;;
45388;SDS011;31127;52.078;4.370;2024-02-21T00:52:09;28.50;;;5.13;;
45388;SDS011;31127;52.078;4.370;2024-02-21T00:57:04;24.50;;;4.88;;
45388;SDS011;31127;52.078;4.370;2024-02-21T01:02:00;30.50;;;5.33;;
45388;SDS011;31127;52.078;4.370;2024-02-21T01:06:55;32.43;;;5.13;;
45388;SDS011;31127;52.078;4.370;2024-02-21T01:12:11;14.77;;;4.18;;
45388;SDS011;31127;52.078;4.370;2024-02-21T01:17:07;28.98;;;5.00;;
45388;SDS011;31127;52.078;4.370;2024-02-21T01:22:03;29.00;;;4.72;;
45388;SDS011;31127;52.078;4.370;2024-02-21T01:27:19;24.95;;;4.15;;
45388;SDS011;31127;52.078;4.370;2024-02-21T01:32:34;21.42;;;4.38;;
45388;SDS011;31127;52.078;4.370;2024-02-21T01:37:30;28.80;;;4.60;;
45388;SDS011;31127;52.078;4.370;2024-02-21T01:42:25;21.67;;;4.40;;
45388;SDS011;31127;52.078;4.370;2024-02-21T01:47:21;25.83;;;4.72;;
45388;SDS011;31127;52.078;4.370;2024-02-21T01:52:17;23.70;;;4.53;;
45388;SDS011;31127;52.078;4.370;2024-02-21T01:57:13;25.65;;;5.75;;
45388;SDS011;31127;52.078;4.370;2024-02-21T02:02:08;24.58;;;4.43;;
45388;SDS011;31127;52.078;4.370;2024-02-21T02:07:24;28.33;;;5.03;;
45388;SDS011;31127;52.078;4.370;2024-02-21T02:12:19;20.90;;;4.40;;
45388;SDS011;31127;52.078;4.370;2024-02-21T02:17:15;20.25;;;4.20;;
45388;SDS011;31127;52.078;4.370;2024-02-21T02:22:14;15.45;;;5.15;;
45388;SDS011;31127;52.078;4.370;2024-02-21T02:27:12;24.10;;;5.28;;
45388;SDS011;31127;52.078;4.370;2024-02-21T02:32:07;23.40;;;4.68;;
45388;SDS011;31127;52.078;4.370;2024-02-21T02:37:02;28.40;;;5.07;;
45388;SDS011;31127;52.078;4.370;2024-02-21T02:41:58;19.20;;;5.22;;
45388;SDS011;31127;52.078;4.370;2024-02-21T02:46:54;22.27;;;4.45;;
45388;SDS011;31127;52.078;4.370;2024-02-21T02:51:49;21.38;;;4.97;;
45388;SDS011;31127;52.078;4.370;2024-02-21T02:56:49;31.65;;;6.38;;
45388;SDS011;31127;52.078;4.370;2024-02-21T03:01:45;17.40;;;5.40;;
45388;SDS011;31127;52.078;4.370;2024-02-21T03:06:40;28.15;;;4.85;;
45388;SDS011;31127;52.078;4.370;2024-02-21T03:11:56;19.23;;;5.32;;
45388;SDS011;31127;52.078;4.370;2024-02-21T03:17:11;17.90;;;5.22;;
45388;SDS011;31127;52.078;4.370;2024-02-21T03:22:27;18.00;;;4.85;;
45388;SDS011;31127;52.078;4.370;2024-02-21T03:27:42;25.80;;;5.10;;
45388;SDS011;31127;52.078;4.370;2024-02-21T03:32:58;19.48;;;5.25;;
45388;SDS011;31127;52.078;4.370;2024-02-21T03:37:53;17.65;;;4.88;;
45388;SDS011;31127;52.078;4.370;2024-02-21T03:43:08;21.88;;;6.05;;
45388;SDS011;31127;52.078;4.370;2024-02-21T03:48:04;22.63;;;6.10;;
45388;SDS011;31127;52.078;4.370;2024-02-21T03:53:00;18.85;;;5.80;;
45388;SDS011;31127;52.078;4.370;2024-02-21T03:57:55;16.35;;;5.25;;
45388;SDS011;31127;52.078;4.370;2024-02-21T04:02:51;17.63;;;5.67;;
45388;SDS011;31127;52.078;4.370;2024-02-21T04:07:46;16.75;;;6.53;;
45388;SDS011;31127;52.078;4.370;2024-02-21T04:13:02;23.55;;;7.05;;
45388;SDS011;31127;52.078;4.370;2024-02-21T04:17:57;17.85;;;6.75;;
45388;SDS011;31127;52.078;4.370;2024-02-21T04:22:53;16.13;;;5.97;;
45388;SDS011;31127;52.078;4.370;2024-02-21T04:27:48;17.25;;;6.40;;
45388;SDS011;31127;52.078;4.370;2024-02-21T04:32:44;17.63;;;6.10;;
45388;SDS011;31127;52.078;4.370;2024-02-21T04:37:39;18.98;;;5.53;;
45388;SDS011;31127;52.078;4.370;2024-02-21T04:42:35;22.65;;;6.80;;
45388;SDS011;31127;52.078;4.370;2024-02-21T04:47:31;17.45;;;5.70;;
45388;SDS011;31127;52.078;4.370;2024-02-21T04:52:26;18.38;;;5.70;;
45388;SDS011;31127;52.078;4.370;2024-02-21T04:57:21;23.70;;;6.22;;
45388;SDS011;31127;52.078;4.370;2024-02-21T05:02:17;16.73;;;6.00;;
45388;SDS011;31127;52.078;4.370;2024-02-21T05:07:14;19.35;;;5.35;;
45388;SDS011;31127;52.078;4.370;2024-02-21T05:12:09;20.35;;;5.53;;
45388;SDS011;31127;52.078;4.370;2024-02-21T05:17:05;20.20;;;6.65;;
45388;SDS011;31127;52.078;4.370;2024-02-21T05:22:01;13.63;;;5.60;;
45388;SDS011;31127;52.078;4.370;2024-02-21T05:26:56;18.85;;;7.20;;
45388;SDS011;31127;52.078;4.370;2024-02-21T05:36:47;14.27;;;7.13;;
45388;SDS011;31127;52.078;4.370;2024-02-21T05:41:44;14.38;;;6.55;;
45388;SDS011;31127;52.078;4.370;2024-02-21T05:46:44;14.20;;;6.82;;
45388;SDS011;31127;52.078;4.370;2024-02-21T05:51:39;14.35;;;6.47;;
45388;SDS011;31127;52.078;4.370;2024-02-21T05:56:35;13.82;;;7.15;;
45388;SDS011;31127;52.078;4.370;2024-02-21T06:01:31;17.38;;;8.63;;
45388;SDS011;31127;52.078;4.370;2024-02-21T06:06:26;22.63;;;9.23;;
45388;SDS011;31127;52.078;4.370;2024-02-21T06:11:21;14.65;;;8.50;;
45388;SDS011;31127;52.078;4.370;2024-02-21T06:16:17;24.40;;;9.48;;
45388;SDS011;31127;52.078;4.370;2024-02-21T06:21:13;20.50;;;7.97;;
45388;SDS011;31127;52.078;4.370;2024-02-21T06:26:11;16.33;;;8.50;;
45388;SDS011;31127;52.078;4.370;2024-02-21T06:31:07;14.32;;;8.63;;
45388;SDS011;31127;52.078;4.370;2024-02-21T06:36:02;22.35;;;9.55;;
45388;SDS011;31127;52.078;4.370;2024-02-21T06:40:58;20.95;;;9.73;;
45388;SDS011;31127;52.078;4.370;2024-02-21T06:45:55;20.38;;;10.25;;
45388;SDS011;31127;52.078;4.370;2024-02-21T06:50:52;24.25;;;10.40;;
45388;SDS011;31127;52.078;4.370;2024-02-21T06:55:47;15.45;;;10.48;;
45388;SDS011;31127;52.078;4.370;2024-02-21T07:00:43;22.75;;;10.32;;
45388;SDS011;31127;52.078;4.370;2024-02-21T07:05:38;25.35;;;11.55;;
45388;SDS011;31127;52.078;4.370;2024-02-21T07:10:35;18.52;;;10.45;;
45388;SDS011;31127;52.078;4.370;2024-02-21T07:15:30;22.42;;;10.30;;
45388;SDS011;31127;52.078;4.370;2024-02-21T07:20:26;25.02;;;10.48;;
45388;SDS011;31127;52.078;4.370;2024-02-21T07:25:21;18.27;;;9.00;;
45388;SDS011;31127;52.078;4.370;2024-02-21T07:30:17;18.57;;;9.27;;
45388;SDS011;31127;52.078;4.370;2024-02-21T07:35:32;22.98;;;11.82;;
45388;SDS011;31127;52.078;4.370;2024-02-21T07:40:48;23.00;;;10.60;;
45388;SDS011;31127;52.078;4.370;2024-02-21T07:45:43;25.67;;;11.32;;
45388;SDS011;31127;52.078;4.370;2024-02-21T07:50:39;22.90;;;12.55;;
45388;SDS011;31127;52.078;4.370;2024-02-21T07:55:34;25.38;;;13.13;;
45388;SDS011;31127;52.078;4.370;2024-02-21T08:00:30;23.85;;;13.50;;
45388;SDS011;31127;52.078;4.370;2024-02-21T08:05:25;19.52;;;9.48;;
45388;SDS011;31127;52.078;4.370;2024-02-21T08:10:21;20.30;;;10.55;;
45388;SDS011;31127;52.078;4.370;2024-02-21T08:15:16;18.70;;;10.80;;
45388;SDS011;31127;52.078;4.370;2024-02-21T08:20:12;15.95;;;9.23;;
45388;SDS011;31127;52.078;4.370;2024-02-21T08:25:09;21.30;;;10.18;;
45388;SDS011;31127;52.078;4.370;2024-02-21T08:30:05;17.83;;;10.93;;
45388;SDS011;31127;52.078;4.370;2024-02-21T08:35:20;17.95;;;11.00;;
45388;SDS011;31127;52.078;4.370;2024-02-21T08:40:19;19.55;;;10.25;;
45388;SDS011;31127;52.078;4.370;2024-02-21T08:45:16;19.52;;;12.25;;
45388;SDS011;31127;52.078;4.370;2024-02-21T08:50:12;19.58;;;11.48;;
45388;SDS011;31127;52.078;4.370;2024-02-21T08:55:07;23.23;;;13.38;;
45388;SDS011;31127;52.078;4.370;2024-02-21T09:00:04;20.52;;;12.68;;
45388;SDS011;31127;52.078;4.370;2024-02-21T09:05:04;18.38;;;11.20;;
45388;SDS011;31127;52.078;4.370;2024-02-21T09:10:00;19.33;;;11.00;;
45388;SDS011;31127;52.078;4.370;2024-02-21T09:14:56;17.10;;;11.07;;
45388;SDS011;31127;52.078;4.370;2024-02-21T09:19:51;17.50;;;9.23;;
45388;SDS011;31127;52.078;4.370;2024-02-21T09:24:47;22.70;;;11.77;;
45388;SDS011;31127;52.078;4.370;2024-02-21T09:30:02;13.32;;;9.00;;
45388;SDS011;31127;52.078;4.370;2024-02-21T09:34:59;20.77;;;10.20;;
45388;SDS011;31127;52.078;4.370;2024-02-21T09:39:55;17.37;;;10.60;;
45388;SDS011;31127;52.078;4.370;2024-02-21T09:44:50;17.60;;;11.50;;
45388;SDS011;31127;52.078;4.370;2024-02-21T09:49:56;19.02;;;11.73;;
45388;SDS011;31127;52.078;4.370;2024-02-21T09:54:53;20.20;;;9.85;;
45388;SDS011;31127;52.078;4.370;2024-02-21T09:59:48;19.05;;;10.90;;
45388;SDS011;31127;52.078;4.370;2024-02-21T10:04:45;15.98;;;10.85;;
45388;SDS011;31127;52.078;4.370;2024-02-21T10:09:40;19.20;;;10.93;;
45388;SDS011;31127;52.078;4.370;2024-02-21T10:14:37;16.95;;;9.80;;
45388;SDS011;31127;52.078;4.370;2024-02-21T10:19:33;21.52;;;10.77;;
45388;SDS011;31127;52.078;4.370;2024-02-21T10:24:29;20.70;;;11.43;;
45388;SDS011;31127;52.078;4.370;2024-02-21T10:29:39;21.70;;;11.25;;
45388;SDS011;31127;52.078;4.370;2024-02-21T10:34:35;21.05;;;11.27;;
45388;SDS011;31127;52.078;4.370;2024-02-21T10:39:36;17.77;;;12.00;;
45388;SDS011;31127;52.078;4.370;2024-02-21T10:44:36;16.23;;;10.48;;
45388;SDS011;31127;52.078;4.370;2024-02-21T10:49:33;17.83;;;12.05;;
45388;SDS011;31127;52.078;4.370;2024-02-21T10:54:39;14.20;;;9.65;;
45388;SDS011;31127;52.078;4.370;2024-02-21T10:59:37;15.07;;;10.98;;
45388;SDS011;31127;52.078;4.370;2024-02-21T11:04:35;16.80;;;10.50;;
45388;SDS011;31127;52.078;4.370;2024-02-21T11:09:31;20.13;;;12.25;;
45388;SDS011;31127;52.078;4.370;2024-02-21T11:14:30;15.45;;;9.77;;
45388;SDS011;31127;52.078;4.370;2024-02-21T11:19:32;14.70;;;10.95;;
45388;SDS011;31127;52.078;4.370;2024-02-21T11:24:28;15.10;;;10.68;;
45388;SDS011;31127;52.078;4.370;2024-02-21T11:29:24;15.82;;;10.50;;
45388;SDS011;31127;52.078;4.370;2024-02-21T11:34:23;16.08;;;12.10;;
45388;SDS011;31127;52.078;4.370;2024-02-21T11:39:19;16.70;;;10.35;;
45388;SDS011;31127;52.078;4.370;2024-02-21T11:44:15;14.88;;;10.48;;
45388;SDS011;31127;52.078;4.370;2024-02-21T11:49:11;14.07;;;6.88;;
45388;SDS011;31127;52.078;4.370;2024-02-21T11:54:06;14.48;;;9.65;;
45388;SDS011;31127;52.078;4.370;2024-02-21T11:59:02;10.27;;;8.43;;
45388;SDS011;31127;52.078;4.370;2024-02-21T12:03:57;10.82;;;7.00;;
45388;SDS011;31127;52.078;4.370;2024-02-21T12:08:57;16.23;;;8.90;;
45388;SDS011;31127;52.078;4.370;2024-02-21T12:13:59;12.50;;;8.02;;
45388;SDS011;31127;52.078;4.370;2024-02-21T12:18:56;15.25;;;8.10;;
45388;SDS011;31127;52.078;4.370;2024-02-21T12:23:52;15.02;;;7.93;;
45388;SDS011;31127;52.078;4.370;2024-02-21T12:28:47;11.75;;;6.53;;
45388;SDS011;31127;52.078;4.370;2024-02-21T12:33:43;15.85;;;7.88;;
45388;SDS011;31127;52.078;4.370;2024-02-21T12:38:39;12.77;;;7.35;;
45388;SDS011;31127;52.078;4.370;2024-02-21T12:43:34;16.47;;;7.67;;
45388;SDS011;31127;52.078;4.370;2024-02-21T12:48:30;14.30;;;8.70;;
45388;SDS011;31127;52.078;4.370;2024-02-21T12:53:28;12.52;;;7.75;;
45388;SDS011;31127;52.078;4.370;2024-02-21T12:58:23;13.93;;;7.82;;
45388;SDS011;31127;52.078;4.370;2024-02-21T13:03:19;11.23;;;6.53;;
45388;SDS011;31127;52.078;4.370;2024-02-21T13:08:17;16.98;;;7.20;;
45388;SDS011;31127;52.078;4.370;2024-02-21T13:13:19;12.40;;;6.72;;
45388;SDS011;31127;52.078;4.370;2024-02-21T13:18:37;13.65;;;7.95;;
45388;SDS011;31127;52.078;4.370;2024-02-21T13:23:33;12.90;;;8.18;;
45388;SDS011;31127;52.078;4.370;2024-02-21T13:28:31;18.08;;;9.82;;
45388;SDS011;31127;52.078;4.370;2024-02-21T13:33:26;28.08;;;11.15;;
45388;SDS011;31127;52.078;4.370;2024-02-21T13:38:23;16.40;;;7.80;;
45388;SDS011;31127;52.078;4.370;2024-02-21T13:43:19;16.48;;;9.18;;
45388;SDS011;31127;52.078;4.370;2024-02-21T13:48:15;13.38;;;9.15;;
45388;SDS011;31127;52.078;4.370;2024-02-21T13:53:10;19.23;;;11.95;;
45388;SDS011;31127;52.078;4.370;2024-02-21T13:58:06;18.45;;;13.52;;
45388;SDS011;31127;52.078;4.370;2024-02-21T14:03:03;19.00;;;11.32;;
45388;SDS011;31127;52.078;4.370;2024-02-21T14:07:58;17.48;;;13.20;;
45388;SDS011;31127;52.078;4.370;2024-02-21T14:12:53;18.50;;;11.90;;
45388;SDS011;31127;52.078;4.370;2024-02-21T14:17:50;22.67;;;13.68;;
45388;SDS011;31127;52.078;4.370;2024-02-21T14:22:46;24.60;;;12.98;;
45388;SDS011;31127;52.078;4.370;2024-02-21T14:27:41;21.40;;;13.13;;
45388;SDS011;31127;52.078;4.370;2024-02-21T14:32:40;24.83;;;12.35;;
45388;SDS011;31127;52.078;4.370;2024-02-21T14:37:38;18.27;;;12.02;;
45388;SDS011;31127;52.078;4.370;2024-02-21T14:42:34;17.98;;;11.30;;
45388;SDS011;31127;52.078;4.370;2024-02-21T14:47:31;18.17;;;9.38;;
45388;SDS011;31127;52.078;4.370;2024-02-21T14:52:28;18.42;;;10.00;;
45388;SDS011;31127;52.078;4.370;2024-02-21T14:57:24;13.50;;;8.57;;
45388;SDS011;31127;52.078;4.370;2024-02-21T15:02:20;12.00;;;8.50;;
45388;SDS011;31127;52.078;4.370;2024-02-21T15:07:15;19.23;;;9.07;;
45388;SDS011;31127;52.078;4.370;2024-02-21T15:12:11;14.00;;;8.68;;
45388;SDS011;31127;52.078;4.370;2024-02-21T15:17:26;12.40;;;8.40;;
45388;SDS011;31127;52.078;4.370;2024-02-21T15:22:22;11.55;;;8.43;;
45388;SDS011;31127;52.078;4.370;2024-02-21T15:27:18;14.73;;;8.98;;
45388;SDS011;31127;52.078;4.370;2024-02-21T15:32:34;16.17;;;9.48;;
45388;SDS011;31127;52.078;4.370;2024-02-21T15:37:29;12.88;;;8.10;;
45388;SDS011;31127;52.078;4.370;2024-02-21T15:42:44;13.98;;;7.90;;
45388;SDS011;31127;52.078;4.370;2024-02-21T15:47:41;12.23;;;7.47;;
45388;SDS011;31127;52.078;4.370;2024-02-21T15:52:36;13.95;;;7.75;;
45388;SDS011;31127;52.078;4.370;2024-02-21T15:57:32;11.60;;;7.90;;
45388;SDS011;31127;52.078;4.370;2024-02-21T16:02:28;15.63;;;7.80;;
45388;SDS011;31127;52.078;4.370;2024-02-21T16:07:23;12.38;;;7.30;;
45388;SDS011;31127;52.078;4.370;2024-02-21T16:12:19;10.07;;;6.85;;
45388;SDS011;31127;52.078;4.370;2024-02-21T16:17:14;12.38;;;7.07;;
45388;SDS011;31127;52.078;4.370;2024-02-21T16:22:10;13.90;;;8.18;;
45388;SDS011;31127;52.078;4.370;2024-02-21T16:27:05;11.00;;;7.90;;
45388;SDS011;31127;52.078;4.370;2024-02-21T16:32:04;10.82;;;8.32;;
45388;SDS011;31127;52.078;4.370;2024-02-21T16:37:00;10.73;;;7.95;;
45388;SDS011;31127;52.078;4.370;2024-02-21T16:41:55;10.15;;;6.78;;
45388;SDS011;31127;52.078;4.370;2024-02-21T16:47:04;10.60;;;7.28;;
45388;SDS011;31127;52.078;4.370;2024-02-21T16:52:19;14.07;;;9.60;;
45388;SDS011;31127;52.078;4.370;2024-02-21T16:57:15;17.02;;;9.25;;
45388;SDS011;31127;52.078;4.370;2024-02-21T17:02:10;7.70;;;6.90;;
45388;SDS011;31127;52.078;4.370;2024-02-21T17:07:06;11.23;;;8.80;;
45388;SDS011;31127;52.078;4.370;2024-02-21T17:12:02;12.00;;;7.15;;
45388;SDS011;31127;52.078;4.370;2024-02-21T17:17:02;12.95;;;8.15;;
45388;SDS011;31127;52.078;4.370;2024-02-21T17:21:57;19.10;;;8.68;;
45388;SDS011;31127;52.078;4.370;2024-02-21T17:27:14;13.35;;;10.07;;
45388;SDS011;31127;52.078;4.370;2024-02-21T17:32:29;12.80;;;9.68;;
45388;SDS011;31127;52.078;4.370;2024-02-21T17:37:25;15.98;;;10.23;;
45388;SDS011;31127;52.078;4.370;2024-02-21T17:42:21;13.90;;;9.35;;
45388;SDS011;31127;52.078;4.370;2024-02-21T17:47:39;13.35;;;8.70;;
45388;SDS011;31127;52.078;4.370;2024-02-21T17:52:55;12.02;;;9.65;;
45388;SDS011;31127;52.078;4.370;2024-02-21T17:57:51;18.27;;;11.68;;
45388;SDS011;31127;52.078;4.370;2024-02-21T18:02:47;14.30;;;10.90;;
45388;SDS011;31127;52.078;4.370;2024-02-21T18:07:45;10.70;;;7.90;;
45388;SDS011;31127;52.078;4.370;2024-02-21T18:12:41;11.25;;;9.55;;
45388;SDS011;31127;52.078;4.370;2024-02-21T18:17:37;18.48;;;11.93;;
45388;SDS011;31127;52.078;4.370;2024-02-21T18:22:33;15.25;;;11.18;;
45388;SDS011;31127;52.078;4.370;2024-02-21T18:27:30;19.42;;;13.20;;
45388;SDS011;31127;52.078;4.370;2024-02-21T18:32:25;16.40;;;13.38;;
45388;SDS011;31127;52.078;4.370;2024-02-21T18:37:21;13.55;;;12.00;;
45388;SDS011;31127;52.078;4.370;2024-02-21T18:42:18;15.40;;;12.55;;
45388;SDS011;31127;52.078;4.370;2024-02-21T18:47:14;14.65;;;12.43;;
45388;SDS011;31127;52.078;4.370;2024-02-21T18:52:10;13.45;;;11.07;;
45388;SDS011;31127;52.078;4.370;2024-02-21T18:57:05;20.10;;;14.45;;
45388;SDS011;31127;52.078;4.370;2024-02-21T19:02:18;16.35;;;13.35;;
45388;SDS011;31127;52.078;4.370;2024-02-21T19:07:14;19.05;;;13.15;;
45388;SDS011;31127;52.078;4.370;2024-02-21T19:12:09;18.85;;;13.52;;
45388;SDS011;31127;52.078;4.370;2024-02-21T19:17:05;18.33;;;15.60;;
45388;SDS011;31127;52.078;4.370;2024-02-21T19:22:01;19.37;;;15.27;;
45388;SDS011;31127;52.078;4.370;2024-02-21T19:26:56;17.05;;;15.23;;
45388;SDS011;31127;52.078;4.370;2024-02-21T19:31:51;16.67;;;13.82;;
45388;SDS011;31127;52.078;4.370;2024-02-21T19:36:47;14.60;;;12.52;;
45388;SDS011;31127;52.078;4.370;2024-02-21T19:42:03;16.73;;;12.07;;
45388;SDS011;31127;52.078;4.370;2024-02-21T19:46:59;22.83;;;15.43;;
45388;SDS011;31127;52.078;4.370;2024-02-21T19:51:55;14.30;;;10.82;;
45388;SDS011;31127;52.078;4.370;2024-02-21T19:56:50;12.52;;;10.10;;
45388;SDS011;31127;52.078;4.370;2024-02-21T20:01:46;11.70;;;8.95;;
45388;SDS011;31127;52.078;4.370;2024-02-21T20:06:45;18.65;;;14.48;;
45388;SDS011;31127;52.078;4.370;2024-02-21T20:11:41;11.70;;;10.43;;
45388;SDS011;31127;52.078;4.370;2024-02-21T20:16:37;11.63;;;9.85;;
45388;SDS011;31127;52.078;4.370;2024-02-21T20:21:33;10.32;;;8.82;;
45388;SDS011;31127;52.078;4.370;2024-02-21T20:26:48;11.10;;;8.45;;
45388;SDS011;31127;52.078;4.370;2024-02-21T20:31:44;8.20;;;7.13;;
45388;SDS011;31127;52.078;4.370;2024-02-21T20:36:42;11.68;;;10.45;;
45388;SDS011;31127;52.078;4.370;2024-02-21T20:41:57;12.13;;;10.85;;
45388;SDS011;31127;52.078;4.370;2024-02-21T20:47:13;12.57;;;10.25;;
45388;SDS011;31127;52.078;4.370;2024-02-21T20:52:09;14.27;;;11.55;;
45388;SDS011;31127;52.078;4.370;2024-02-21T20:57:08;11.30;;;10.10;;
45388;SDS011;31127;52.078;4.370;2024-02-21T21:02:24;14.63;;;11.60;;
45388;SDS011;31127;52.078;4.370;2024-02-21T21:07:19;11.85;;;10.32;;
45388;SDS011;31127;52.078;4.370;2024-02-21T21:12:15;11.80;;;9.93;;
45388;SDS011;31127;52.078;4.370;2024-02-21T21:17:11;11.27;;;9.50;;
45388;SDS011;31127;52.078;4.370;2024-02-21T21:22:06;15.00;;;8.93;;
45388;SDS011;31127;52.078;4.370;2024-02-21T21:27:02;8.25;;;7.22;;
45388;SDS011;31127;52.078;4.370;2024-02-21T21:31:58;7.45;;;6.25;;
45388;SDS011;31127;52.078;4.370;2024-02-21T21:36:53;8.13;;;7.30;;
45388;SDS011;31127;52.078;4.370;2024-02-21T21:41:50;7.85;;;6.50;;
45388;SDS011;31127;52.078;4.370;2024-02-21T21:46:45;7.40;;;6.38;;
45388;SDS011;31127;52.078;4.370;2024-02-21T21:52:01;7.55;;;6.18;;
45388;SDS011;31127;52.078;4.370;2024-02-21T21:57:17;8.77;;;7.53;;
45388;SDS011;31127;52.078;4.370;2024-02-21T22:02:19;9.93;;;8.27;;
45388;SDS011;31127;52.078;4.370;2024-02-21T22:07:34;7.30;;;6.03;;
45388;SDS011;31127;52.078;4.370;2024-02-21T22:12:30;7.82;;;6.25;;
45388;SDS011;31127;52.078;4.370;2024-02-21T22:17:26;8.48;;;7.07;;
45388;SDS011;31127;52.078;4.370;2024-02-21T22:22:22;10.50;;;6.38;;
45388;SDS011;31127;52.078;4.370;2024-02-21T22:27:20;9.48;;;6.38;;
45388;SDS011;31127;52.078;4.370;2024-02-21T22:32:20;10.17;;;5.87;;
45388;SDS011;31127;52.078;4.370;2024-02-21T22:37:15;13.73;;;7.10;;
45388;SDS011;31127;52.078;4.370;2024-02-21T22:42:11;12.43;;;5.43;;
45388;SDS011;31127;52.078;4.370;2024-02-21T22:47:06;15.25;;;6.50;;
45388;SDS011;31127;52.078;4.370;2024-02-21T22:52:22;10.38;;;5.57;;
45388;SDS011;31127;52.078;4.370;2024-02-21T22:57:18;12.90;;;6.72;;
45388;SDS011;31127;52.078;4.370;2024-02-21T23:02:13;16.52;;;6.65;;
45388;SDS011;31127;52.078;4.370;2024-02-21T23:07:09;18.47;;;6.80;;
45388;SDS011;31127;52.078;4.370;2024-02-21T23:12:04;15.80;;;8.30;;
45388;SDS011;31127;52.078;4.370;2024-02-21T23:17:00;16.52;;;8.23;;
45388;SDS011;31127;52.078;4.370;2024-02-21T23:22:16;23.27;;;8.40;;
45388;SDS011;31127;52.078;4.370;2024-02-21T23:27:12;27.38;;;9.65;;
45388;SDS011;31127;52.078;4.370;2024-02-21T23:32:08;24.00;;;9.77;;
45388;SDS011;31127;52.078;4.370;2024-02-21T23:37:04;38.55;;;10.38;;
45388;SDS011;31127;52.078;4.370;2024-02-21T23:41:59;28.52;;;9.60;;
45388;SDS011;31127;52.078;4.370;2024-02-21T23:46:56;39.30;;;10.07;;
45388;SDS011;31127;52.078;4.370;2024-02-21T23:51:52;32.38;;;10.30;;
45388;SDS011;31127;52.078;4.370;2024-02-21T23:56:47;36.85;;;9.35;;
